PWSweather.com
Personal Weather Stations
Station Observations
KMAMEDFI2
Medfield, MA 02052

Medfield, MA 02052

Lat: 42.1900822, Lon: -71.3296889

Elevation: 138

Station Type: Rainwise WS MK-III

http://www.medfieldweather.com

High Low Average
Temperature 32.9°F0.5°C 4.8°F-15.1°C 23.7°F-4.6°C
Dew Point 31.6°F-0.2°C 0.8°F-17.3°C 21.8°F-5.7°C
Winds 10.4 mph 16.7 kmh Calm Calm 3.0 mph SSW4.8 kmh SSW
Wind Gusts 19.6 mph31.5 kmh -- 4.0 mph6.4 kmh
Humidity 95% 82% 92%
Pressure 30.00 in1015.9 mb 29.18 in988.1 mb -
Precipitation 0.31 in7.9 mm - -
Hour Temp Dew Point Humidity Winds Wind Gusts Pressure Precip Precip Rate Daily Precip Total
12:00 AM 28.1°F-2.2°C 26.6°F-3.0°C 94% 1.2 mph WSW1.9 kmh WSW 2.3 mph3.7 kmh 30.06 in1017.9 mb - 0.00 in0.0 mm 0.00 in0.0 mm
12:10 AM 28.2°F-2.1°C 26.7°F-2.9°C 94% 1.2 mph N1.9 kmh N 2.3 mph3.7 kmh 30.05 in1017.6 mb - 0.00 in0.0 mm 0.00 in0.0 mm
12:20 AM 28.3°F-2.1°C 26.8°F-2.9°C 94% 1.2 mph NNE1.9 kmh NNE 2.3 mph3.7 kmh 30.04 in1017.3 mb - 0.00 in0.0 mm 0.00 in0.0 mm
12:30 AM 28.5°F-1.9°C 27.0°F-2.8°C 94% 2.3 mph ESE3.7 kmh ESE 2.3 mph3.7 kmh 30.03 in1016.9 mb - 0.00 in0.0 mm 0.00 in0.0 mm
12:40 AM 28.7°F-1.8°C 27.2°F-2.7°C 94% 2.3 mph SE3.7 kmh SE 2.3 mph3.7 kmh 30.01 in1016.3 mb - 0.00 in0.0 mm 0.00 in0.0 mm
12:50 AM 28.9°F-1.7°C 27.4°F-2.6°C 94% 1.2 mph ESE1.9 kmh ESE 2.3 mph3.7 kmh 30.01 in1016.3 mb - 0.00 in0.0 mm 0.00 in0.0 mm
01:00 AM 29.1°F-1.6°C 27.6°F-2.4°C 94% 1.2 mph NE1.9 kmh NE 1.2 mph1.9 kmh 30.00 in1015.9 mb - 0.00 in0.0 mm 0.00 in0.0 mm
01:10 AM 29.3°F-1.5°C 27.8°F-2.3°C 94% 4.6 mph E7.4 kmh E 8.1 mph13.0 kmh 29.99 in1015.6 mb - 0.00 in0.0 mm 0.00 in0.0 mm
01:20 AM 29.4°F-1.4°C 27.9°F-2.3°C 94% 3.5 mph E5.6 kmh E 2.3 mph3.7 kmh 29.97 in1014.9 mb - 0.00 in0.0 mm 0.00 in0.0 mm
01:30 AM 29.5°F-1.4°C 28.0°F-2.2°C 94% 3.5 mph E5.6 kmh E 5.8 mph9.3 kmh 29.95 in1014.2 mb - 0.00 in0.0 mm 0.00 in0.0 mm
01:40 AM 29.7°F-1.3°C 28.2°F-2.1°C 94% 3.5 mph ESE5.6 kmh ESE 5.8 mph9.3 kmh 29.96 in1014.6 mb - 0.00 in0.0 mm 0.00 in0.0 mm
01:50 AM 29.9°F-1.2°C 28.4°F-2.0°C 94% 3.5 mph ESE5.6 kmh ESE 2.3 mph3.7 kmh 29.94 in1013.9 mb - 0.00 in0.0 mm 0.00 in0.0 mm
02:00 AM 29.9°F-1.2°C 28.4°F-2.0°C 94% 3.5 mph ESE5.6 kmh ESE 3.5 mph5.6 kmh 29.93 in1013.5 mb - 0.00 in0.0 mm 0.00 in0.0 mm
02:10 AM 30.1°F-1.1°C 28.6°F-1.9°C 94% 1.2 mph E1.9 kmh E 1.2 mph1.9 kmh 29.93 in1013.5 mb - 0.00 in0.0 mm 0.00 in0.0 mm
02:20 AM 30.3°F-0.9°C 28.8°F-1.8°C 94% 2.3 mph ENE3.7 kmh ENE 5.8 mph9.3 kmh 29.93 in1013.5 mb - 0.00 in0.0 mm 0.00 in0.0 mm
02:30 AM 30.4°F-0.9°C 28.9°F-1.7°C 94% 3.5 mph E5.6 kmh E 5.8 mph9.3 kmh 29.92 in1013.2 mb - 0.00 in0.0 mm 0.00 in0.0 mm
02:40 AM 30.5°F-0.8°C 29.0°F-1.7°C 94% 5.8 mph ENE9.3 kmh ENE 9.2 mph14.8 kmh 29.90 in1012.5 mb - 0.00 in0.0 mm 0.00 in0.0 mm
02:50 AM 30.7°F-0.7°C 29.1°F-1.6°C 94% 4.6 mph ESE7.4 kmh ESE 5.8 mph9.3 kmh 29.89 in1012.2 mb - 0.00 in0.0 mm 0.00 in0.0 mm
03:00 AM 30.9°F-0.6°C 29.4°F-1.4°C 94% 2.3 mph ESE3.7 kmh ESE 2.3 mph3.7 kmh 29.90 in1012.5 mb - 0.00 in0.0 mm 0.00 in0.0 mm
03:10 AM 30.9°F-0.6°C 29.4°F-1.4°C 94% 3.5 mph ENE5.6 kmh ENE 5.8 mph9.3 kmh 29.88 in1011.9 mb - 0.00 in0.0 mm 0.00 in0.0 mm
03:20 AM 31.1°F-0.5°C 29.8°F-1.2°C 95% 3.5 mph SSE5.6 kmh SSE 6.9 mph11.1 kmh 29.88 in1011.9 mb - 0.00 in0.0 mm 0.00 in0.0 mm
03:30 AM 31.1°F-0.5°C 29.8°F-1.2°C 95% 4.6 mph E7.4 kmh E 9.2 mph14.8 kmh 29.86 in1011.2 mb - 0.00 in0.0 mm 0.00 in0.0 mm
03:40 AM 31.1°F-0.5°C 29.8°F-1.2°C 95% 4.6 mph SE7.4 kmh SE 8.1 mph13.0 kmh 29.86 in1011.2 mb - 0.00 in0.0 mm 0.00 in0.0 mm
03:50 AM 30.9°F-0.6°C 29.4°F-1.4°C 94% 6.9 mph E11.1 kmh E 8.1 mph13.0 kmh 29.85 in1010.8 mb - 0.00 in0.0 mm 0.00 in0.0 mm
04:00 AM 30.9°F-0.6°C 29.4°F-1.4°C 94% 3.5 mph SE5.6 kmh SE 5.8 mph9.3 kmh 29.84 in1010.5 mb - 0.00 in0.0 mm 0.00 in0.0 mm
04:10 AM 30.8°F-0.7°C 29.3°F-1.5°C 94% 4.6 mph E7.4 kmh E 3.5 mph5.6 kmh 29.83 in1010.2 mb - 0.00 in0.0 mm 0.00 in0.0 mm
04:20 AM 30.7°F-0.7°C 29.2°F-1.6°C 94% 4.6 mph ESE7.4 kmh ESE 9.2 mph14.8 kmh 29.82 in1009.8 mb - 0.00 in0.0 mm 0.00 in0.0 mm
04:30 AM 30.6°F-0.8°C 29.1°F-1.6°C 94% 4.6 mph E7.4 kmh E 5.8 mph9.3 kmh 29.80 in1009.1 mb - 0.00 in0.0 mm 0.00 in0.0 mm
04:40 AM 30.6°F-0.8°C 29.1°F-1.6°C 94% 5.8 mph ESE9.3 kmh ESE 8.1 mph13.0 kmh 29.79 in1008.8 mb - 0.00 in0.0 mm 0.00 in0.0 mm
04:50 AM 30.6°F-0.8°C 29.1°F-1.6°C 94% 2.3 mph SE3.7 kmh SE 5.8 mph9.3 kmh 29.78 in1008.5 mb - 0.00 in0.0 mm 0.00 in0.0 mm
05:00 AM 30.7°F-0.7°C 29.2°F-1.6°C 94% 4.6 mph E7.4 kmh E 6.9 mph11.1 kmh 29.78 in1008.5 mb - 0.00 in0.0 mm 0.00 in0.0 mm
05:10 AM 30.9°F-0.6°C 29.4°F-1.4°C 94% 3.5 mph ESE5.6 kmh ESE 8.1 mph13.0 kmh 29.75 in1007.5 mb - 0.00 in0.0 mm 0.00 in0.0 mm
05:20 AM 31.1°F-0.5°C 29.8°F-1.2°C 95% 3.5 mph E5.6 kmh E 6.9 mph11.1 kmh 29.72 in1006.4 mb - 0.00 in0.0 mm 0.00 in0.0 mm
05:30 AM 31.3°F-0.4°C 30.0°F-1.1°C 95% 8.1 mph E13.0 kmh E 9.2 mph14.8 kmh 29.70 in1005.8 mb - 0.00 in0.0 mm 0.00 in0.0 mm
05:40 AM 31.5°F-0.3°C 30.2°F-1.0°C 95% 4.6 mph E7.4 kmh E 8.1 mph13.0 kmh 29.70 in1005.8 mb - 0.00 in0.0 mm 0.00 in0.0 mm
05:50 AM 31.8°F-0.1°C 30.5°F-0.8°C 95% 4.6 mph ESE7.4 kmh ESE 6.9 mph11.1 kmh 29.69 in1005.4 mb - 0.00 in0.0 mm 0.00 in0.0 mm
06:00 AM 31.9°F-0.1°C 30.6°F-0.8°C 95% 2.3 mph S3.7 kmh S 3.5 mph5.6 kmh 29.68 in1005.1 mb - 0.00 in0.0 mm 0.00 in0.0 mm
06:10 AM 31.9°F-0.1°C 30.7°F-0.7°C 95% 4.6 mph N7.4 kmh N 6.9 mph11.1 kmh 29.70 in1005.8 mb - 0.00 in0.0 mm 0.00 in0.0 mm
06:20 AM 32.1°F0.1°C 30.8°F-0.7°C 95% 1.2 mph SE1.9 kmh SE 2.3 mph3.7 kmh 29.68 in1005.1 mb - 0.00 in0.0 mm 0.00 in0.0 mm
06:30 AM 32.1°F0.1°C 30.8°F-0.7°C 95% 4.6 mph E7.4 kmh E 6.9 mph11.1 kmh 29.65 in1004.1 mb - 0.00 in0.0 mm 0.00 in0.0 mm
06:40 AM 32.2°F0.1°C 30.9°F-0.6°C 95% 4.6 mph NE7.4 kmh NE 6.9 mph11.1 kmh 29.64 in1003.7 mb - 0.00 in0.0 mm 0.00 in0.0 mm
06:50 AM 32.3°F0.2°C 31.0°F-0.6°C 95% 5.8 mph NE9.3 kmh NE 15.0 mph24.1 kmh 29.63 in1003.4 mb - 0.00 in0.0 mm 0.00 in0.0 mm
07:00 AM 32.5°F0.3°C 31.2°F-0.4°C 95% 3.5 mph ENE5.6 kmh ENE 5.8 mph9.3 kmh 29.62 in1003.0 mb - 0.00 in0.0 mm 0.00 in0.0 mm
07:10 AM 32.5°F0.3°C 31.3°F-0.4°C 95% 2.3 mph NW3.7 kmh NW 9.2 mph14.8 kmh 29.62 in1003.0 mb - 0.00 in0.0 mm 0.00 in0.0 mm
07:20 AM 32.6°F0.3°C 31.3°F-0.4°C 95% 2.3 mph ESE3.7 kmh ESE 2.3 mph3.7 kmh 29.62 in1003.0 mb - 0.02 in0.5 mm 0.02 in0.5 mm
07:30 AM 32.6°F0.3°C 31.3°F-0.4°C 95% 2.3 mph NE3.7 kmh NE 5.8 mph9.3 kmh 29.61 in1002.7 mb - 0.05 in1.3 mm 0.05 in1.3 mm
07:40 AM 32.7°F0.4°C 31.4°F-0.3°C 95% 3.5 mph NE5.6 kmh NE 8.1 mph13.0 kmh 29.60 in1002.4 mb - 0.08 in2.0 mm 0.08 in2.0 mm
07:50 AM 32.7°F0.4°C 31.4°F-0.3°C 95% 3.5 mph SSE5.6 kmh SSE 2.3 mph3.7 kmh 29.57 in1001.4 mb - 0.09 in2.3 mm 0.09 in2.3 mm
08:00 AM 32.9°F0.5°C 31.6°F-0.2°C 95% 4.6 mph NE7.4 kmh NE 3.5 mph5.6 kmh 29.57 in1001.4 mb - 0.11 in2.8 mm 0.11 in2.8 mm
08:10 AM 32.9°F0.5°C 31.6°F-0.2°C 95% 2.3 mph ENE3.7 kmh ENE 5.8 mph9.3 kmh 29.57 in1001.4 mb - 0.13 in3.3 mm 0.13 in3.3 mm
08:20 AM 32.9°F0.5°C 31.6°F-0.2°C 95% 5.8 mph E9.3 kmh E 8.1 mph13.0 kmh 29.58 in1001.7 mb - 0.16 in4.1 mm 0.17 in4.3 mm
08:30 AM 32.7°F0.4°C 31.4°F-0.3°C 95% 3.5 mph ENE5.6 kmh ENE 8.1 mph13.0 kmh 29.56 in1001.0 mb - 0.16 in4.1 mm 0.21 in5.3 mm
08:40 AM 32.3°F0.2°C 31.0°F-0.6°C 95% 2.3 mph WNW3.7 kmh WNW 5.8 mph9.3 kmh 29.54 in1000.3 mb - 0.18 in4.6 mm 0.25 in6.4 mm
08:50 AM 29.8°F-1.2°C 28.3°F-2.1°C 94% 6.9 mph E11.1 kmh E 10.4 mph16.7 kmh 29.55 in1000.7 mb - 0.18 in4.6 mm 0.27 in6.9 mm
09:00 AM 28.5°F-1.9°C 27.0°F-2.8°C 94% 1.2 mph WSW1.9 kmh WSW 1.2 mph1.9 kmh 29.51 in999.3 mb - 0.17 in4.3 mm 0.28 in7.1 mm
09:10 AM 27.9°F-2.3°C 26.4°F-3.1°C 94% 2.3 mph WSW3.7 kmh WSW 5.8 mph9.3 kmh 29.49 in998.6 mb - 0.17 in4.3 mm 0.30 in7.6 mm
09:20 AM 26.8°F-2.9°C 25.3°F-3.7°C 94% 3.5 mph WSW5.6 kmh WSW 9.2 mph14.8 kmh 29.48 in998.3 mb - 0.13 in3.3 mm 0.30 in7.6 mm
09:30 AM 25.7°F-3.5°C 24.2°F-4.3°C 94% 2.3 mph WSW3.7 kmh WSW 2.3 mph3.7 kmh 29.49 in998.6 mb - 0.10 in2.5 mm 0.31 in7.9 mm
09:40 AM 24.4°F-4.2°C 22.7°F-5.2°C 93% 2.3 mph WSW3.7 kmh WSW 10.4 mph16.7 kmh 29.49 in998.6 mb - 0.07 in1.8 mm 0.31 in7.9 mm
09:50 AM 23.6°F-4.7°C 21.8°F-5.7°C 93% 2.3 mph WSW3.7 kmh WSW 2.3 mph3.7 kmh 29.49 in998.6 mb - 0.04 in1.0 mm 0.31 in7.9 mm
10:00 AM 23.1°F-4.9°C 21.4°F-5.9°C 93% 2.3 mph WSW3.7 kmh WSW 2.3 mph3.7 kmh 29.47 in998.0 mb - 0.03 in0.8 mm 0.31 in7.9 mm
10:10 AM 22.9°F-5.1°C 21.2°F-6.0°C 93% 2.3 mph WSW3.7 kmh WSW 2.3 mph3.7 kmh 29.47 in998.0 mb - 0.02 in0.5 mm 0.31 in7.9 mm
10:20 AM 22.9°F-5.1°C 21.2°F-6.0°C 93% Calm Calm 5.8 mph9.3 kmh 29.46 in997.6 mb - 0.01 in0.3 mm 0.31 in7.9 mm
10:30 AM 23.1°F-4.9°C 21.4°F-5.9°C 93% 2.3 mph WSW3.7 kmh WSW 1.2 mph1.9 kmh 29.46 in997.6 mb - 0.00 in0.0 mm 0.31 in7.9 mm
10:40 AM 22.7°F-5.2°C 21.0°F-6.1°C 93% 2.3 mph WSW3.7 kmh WSW 5.8 mph9.3 kmh 29.45 in997.3 mb - 0.00 in0.0 mm 0.31 in7.9 mm
10:50 AM 22.0°F-5.6°C 20.3°F-6.5°C 93% 3.5 mph WSW5.6 kmh WSW 3.5 mph5.6 kmh 29.47 in998.0 mb - 0.00 in0.0 mm 0.31 in7.9 mm
11:00 AM 20.6°F-6.3°C 18.9°F-7.3°C 93% 3.5 mph WSW5.6 kmh WSW 5.8 mph9.3 kmh 29.44 in997.0 mb - 0.00 in0.0 mm 0.31 in7.9 mm
11:10 AM 20.2°F-6.6°C 18.5°F-7.5°C 93% 4.6 mph WSW7.4 kmh WSW 3.5 mph5.6 kmh 29.42 in996.3 mb - 0.00 in0.0 mm 0.31 in7.9 mm
11:20 AM 20.5°F-6.4°C 18.8°F-7.3°C 93% 1.2 mph WSW1.9 kmh WSW 2.3 mph3.7 kmh 29.42 in996.3 mb - 0.00 in0.0 mm 0.31 in7.9 mm
11:30 AM 20.9°F-6.2°C 19.2°F-7.1°C 93% 3.5 mph WSW5.6 kmh WSW 5.8 mph9.3 kmh 29.42 in996.3 mb - 0.00 in0.0 mm 0.31 in7.9 mm
11:40 AM 21.2°F-6.0°C 19.5°F-6.9°C 93% 2.3 mph WSW3.7 kmh WSW 2.3 mph3.7 kmh 29.40 in995.6 mb - 0.00 in0.0 mm 0.31 in7.9 mm
11:50 AM 21.6°F-5.8°C 19.9°F-6.7°C 93% 5.8 mph WSW9.3 kmh WSW 8.1 mph13.0 kmh 29.38 in994.9 mb - 0.00 in0.0 mm 0.31 in7.9 mm
12:00 PM 21.6°F-5.8°C 19.9°F-6.7°C 93% 3.5 mph WSW5.6 kmh WSW 2.3 mph3.7 kmh 29.36 in994.2 mb - 0.00 in0.0 mm 0.31 in7.9 mm
12:10 PM 21.6°F-5.8°C 19.9°F-6.7°C 93% 2.3 mph WSW3.7 kmh WSW 2.3 mph3.7 kmh 29.37 in994.6 mb - 0.00 in0.0 mm 0.31 in7.9 mm
12:20 PM 21.4°F-5.9°C 19.6°F-6.9°C 93% 3.5 mph WSW5.6 kmh WSW 8.1 mph13.0 kmh 29.36 in994.2 mb - 0.00 in0.0 mm 0.31 in7.9 mm
12:30 PM 21.3°F-5.9°C 19.6°F-6.9°C 93% 2.3 mph WSW3.7 kmh WSW 2.3 mph3.7 kmh 29.34 in993.6 mb - 0.00 in0.0 mm 0.31 in7.9 mm
12:40 PM 21.7°F-5.7°C 20.0°F-6.7°C 93% 1.2 mph WSW1.9 kmh WSW 2.3 mph3.7 kmh 29.33 in993.2 mb - 0.00 in0.0 mm 0.31 in7.9 mm
12:50 PM 22.3°F-5.4°C 20.6°F-6.3°C 93% 2.3 mph WSW3.7 kmh WSW 2.3 mph3.7 kmh 29.32 in992.9 mb - 0.00 in0.0 mm 0.31 in7.9 mm
01:10 PM 23.9°F-4.5°C 22.2°F-5.4°C 93% Calm Calm -- 29.28 in991.5 mb - 0.00 in0.0 mm 0.31 in7.9 mm
01:20 PM 24.9°F-3.9°C 23.2°F-4.9°C 93% Calm Calm -- 29.26 in990.9 mb - 0.00 in0.0 mm 0.31 in7.9 mm
01:30 PM 25.4°F-3.7°C 23.9°F-4.5°C 94% Calm Calm -- 29.22 in989.5 mb - 0.00 in0.0 mm 0.31 in7.9 mm
01:40 PM 25.9°F-3.4°C 24.5°F-4.2°C 94% Calm Calm -- 29.20 in988.8 mb - 0.00 in0.0 mm 0.31 in7.9 mm
01:50 PM 26.6°F-3.0°C 25.1°F-3.8°C 94% Calm Calm -- 29.19 in988.5 mb - 0.00 in0.0 mm 0.31 in7.9 mm
02:00 PM 26.9°F-2.8°C 25.4°F-3.7°C 94% Calm Calm -- 29.19 in988.5 mb - 0.00 in0.0 mm 0.31 in7.9 mm
02:10 PM 27.3°F-2.6°C 25.8°F-3.4°C 94% Calm Calm -- 29.19 in988.5 mb - 0.00 in0.0 mm 0.31 in7.9 mm
02:20 PM 27.3°F-2.6°C 25.8°F-3.4°C 94% Calm Calm -- 29.19 in988.5 mb - 0.00 in0.0 mm 0.31 in7.9 mm
02:30 PM 27.1°F-2.7°C 25.6°F-3.6°C 94% Calm Calm -- 29.18 in988.1 mb - 0.00 in0.0 mm 0.31 in7.9 mm
02:40 PM 26.8°F-2.9°C 25.3°F-3.7°C 94% Calm Calm -- 29.20 in988.8 mb - 0.00 in0.0 mm 0.31 in7.9 mm
02:50 PM 26.9°F-2.8°C 25.4°F-3.7°C 94% Calm Calm -- 29.19 in988.5 mb - 0.00 in0.0 mm 0.31 in7.9 mm
03:00 PM 27.0°F-2.8°C 25.5°F-3.6°C 94% Calm Calm -- 29.21 in989.2 mb - 0.00 in0.0 mm 0.31 in7.9 mm
03:10 PM 25.1°F-3.8°C 23.6°F-4.7°C 94% Calm Calm -- 29.23 in989.8 mb - 0.00 in0.0 mm 0.31 in7.9 mm
03:20 PM 23.1°F-4.9°C 21.4°F-5.9°C 93% Calm Calm -- 29.23 in989.8 mb - 0.00 in0.0 mm 0.31 in7.9 mm
03:30 PM 20.9°F-6.2°C 19.2°F-7.1°C 93% Calm Calm -- 29.26 in990.9 mb - 0.00 in0.0 mm 0.31 in7.9 mm
03:40 PM 19.2°F-7.1°C 17.5°F-8.1°C 93% Calm Calm -- 29.26 in990.9 mb - 0.00 in0.0 mm 0.31 in7.9 mm
03:50 PM 18.9°F-7.3°C 17.2°F-8.2°C 93% Calm Calm -- 29.25 in990.5 mb - 0.00 in0.0 mm 0.31 in7.9 mm
04:00 PM 18.9°F-7.3°C 17.2°F-8.2°C 93% Calm Calm -- 29.25 in990.5 mb - 0.00 in0.0 mm 0.31 in7.9 mm
04:10 PM 19.0°F-7.2°C 17.3°F-8.2°C 93% Calm Calm -- 29.26 in990.9 mb - 0.00 in0.0 mm 0.31 in7.9 mm
04:20 PM 19.2°F-7.1°C 17.5°F-8.1°C 93% Calm Calm -- 29.25 in990.5 mb - 0.00 in0.0 mm 0.31 in7.9 mm
04:30 PM 19.5°F-6.9°C 17.8°F-7.9°C 93% Calm Calm -- 29.25 in990.5 mb - 0.00 in0.0 mm 0.31 in7.9 mm
04:40 PM 19.7°F-6.8°C 18.0°F-7.8°C 93% Calm Calm -- 29.24 in990.2 mb - 0.00 in0.0 mm 0.31 in7.9 mm
04:50 PM 19.9°F-6.7°C 18.2°F-7.7°C 93% Calm Calm -- 29.23 in989.8 mb - 0.00 in0.0 mm 0.31 in7.9 mm
05:00 PM 20.2°F-6.6°C 18.5°F-7.5°C 93% Calm Calm -- 29.22 in989.5 mb - 0.00 in0.0 mm 0.31 in7.9 mm
05:10 PM 20.6°F-6.3°C 18.9°F-7.3°C 93% Calm Calm -- 29.23 in989.8 mb - 0.00 in0.0 mm 0.31 in7.9 mm
05:20 PM 21.1°F-6.1°C 19.4°F-7.0°C 93% Calm Calm -- 29.24 in990.2 mb - 0.00 in0.0 mm 0.31 in7.9 mm
05:30 PM 21.3°F-5.9°C 19.6°F-6.9°C 93% Calm Calm -- 29.24 in990.2 mb - 0.00 in0.0 mm 0.31 in7.9 mm
05:40 PM 21.4°F-5.9°C 19.7°F-6.8°C 93% Calm Calm -- 29.24 in990.2 mb - 0.00 in0.0 mm 0.31 in7.9 mm
05:50 PM 21.4°F-5.9°C 19.7°F-6.8°C 93% Calm Calm -- 29.24 in990.2 mb - 0.00 in0.0 mm 0.31 in7.9 mm
06:00 PM 21.5°F-5.8°C 19.8°F-6.8°C 93% Calm Calm -- 29.25 in990.5 mb - 0.00 in0.0 mm 0.31 in7.9 mm
06:10 PM 21.7°F-5.7°C 20.0°F-6.7°C 93% Calm Calm -- 29.26 in990.9 mb - 0.00 in0.0 mm 0.31 in7.9 mm
06:20 PM 21.9°F-5.6°C 20.2°F-6.6°C 93% Calm Calm -- 29.26 in990.9 mb - 0.00 in0.0 mm 0.31 in7.9 mm
06:30 PM 22.2°F-5.4°C 20.5°F-6.4°C 93% Calm Calm -- 29.26 in990.9 mb - 0.00 in0.0 mm 0.31 in7.9 mm
06:40 PM 22.4°F-5.3°C 20.7°F-6.3°C 93% Calm Calm -- 29.26 in990.9 mb - 0.00 in0.0 mm 0.31 in7.9 mm
06:50 PM 22.7°F-5.2°C 21.0°F-6.1°C 93% Calm Calm -- 29.26 in990.9 mb - 0.00 in0.0 mm 0.31 in7.9 mm
07:00 PM 22.9°F-5.1°C 21.2°F-6.0°C 93% Calm Calm -- 29.27 in991.2 mb - 0.00 in0.0 mm 0.31 in7.9 mm
07:10 PM 23.1°F-4.9°C 21.4°F-5.9°C 93% Calm Calm -- 29.27 in991.2 mb - 0.00 in0.0 mm 0.31 in7.9 mm
07:20 PM 23.2°F-4.9°C 21.5°F-5.8°C 93% Calm Calm -- 29.28 in991.5 mb - 0.00 in0.0 mm 0.31 in7.9 mm
07:30 PM 23.4°F-4.8°C 21.7°F-5.7°C 93% Calm Calm -- 29.28 in991.5 mb - 0.00 in0.0 mm 0.31 in7.9 mm
07:40 PM 23.3°F-4.8°C 21.6°F-5.8°C 93% Calm Calm -- 29.29 in991.9 mb - 0.00 in0.0 mm 0.31 in7.9 mm
07:50 PM 23.1°F-4.9°C 21.4°F-5.9°C 93% Calm Calm -- 29.30 in992.2 mb - 0.00 in0.0 mm 0.31 in7.9 mm
08:00 PM 22.9°F-5.1°C 21.2°F-6.0°C 93% Calm Calm -- 29.30 in992.2 mb - 0.00 in0.0 mm 0.31 in7.9 mm
08:10 PM 22.4°F-5.3°C 20.7°F-6.3°C 93% Calm Calm -- 29.31 in992.6 mb - 0.00 in0.0 mm 0.31 in7.9 mm
08:20 PM 21.9°F-5.6°C 20.2°F-6.6°C 93% Calm Calm -- 29.32 in992.9 mb - 0.00 in0.0 mm 0.31 in7.9 mm
08:30 PM 21.2°F-6.0°C 19.5°F-6.9°C 93% Calm Calm -- 29.33 in993.2 mb - 0.00 in0.0 mm 0.31 in7.9 mm
08:40 PM 19.9°F-6.7°C 17.7°F-7.9°C 91% Calm Calm -- 29.35 in993.9 mb - 0.00 in0.0 mm 0.31 in7.9 mm
08:50 PM 18.7°F-7.4°C 16.8°F-8.4°C 92% Calm Calm -- 29.35 in993.9 mb - 0.00 in0.0 mm 0.31 in7.9 mm
09:00 PM 18.0°F-7.8°C 16.3°F-8.7°C 93% Calm Calm -- 29.35 in993.9 mb - 0.00 in0.0 mm 0.31 in7.9 mm
09:10 PM 17.5°F-8.1°C 14.9°F-9.5°C 89% Calm Calm -- 29.35 in993.9 mb - 0.00 in0.0 mm 0.31 in7.9 mm
09:20 PM 16.9°F-8.4°C 14.5°F-9.7°C 90% 3.5 mph WSW5.6 kmh WSW 13.8 mph22.2 kmh 29.35 in993.9 mb - 0.00 in0.0 mm 0.31 in7.9 mm
09:30 PM 15.9°F-8.9°C 13.0°F-10.6°C 88% 6.9 mph NW11.1 kmh NW 9.2 mph14.8 kmh 29.37 in994.6 mb - 0.00 in0.0 mm 0.31 in7.9 mm
09:40 PM 15.4°F-9.2°C 13.0°F-10.6°C 90% 1.2 mph SE1.9 kmh SE 2.3 mph3.7 kmh 29.38 in994.9 mb - 0.00 in0.0 mm 0.31 in7.9 mm
09:50 PM 14.8°F-9.6°C 12.4°F-10.9°C 90% 2.3 mph SE3.7 kmh SE 3.5 mph5.6 kmh 29.38 in994.9 mb - 0.00 in0.0 mm 0.31 in7.9 mm
10:00 PM 14.2°F-9.9°C 11.0°F-11.7°C 87% 5.8 mph SW9.3 kmh SW 11.5 mph18.5 kmh 29.38 in994.9 mb - 0.00 in0.0 mm 0.31 in7.9 mm
10:10 PM 13.5°F-10.3°C 10.9°F-11.7°C 89% 2.3 mph WSW3.7 kmh WSW 11.5 mph18.5 kmh 29.39 in995.3 mb - 0.00 in0.0 mm 0.31 in7.9 mm
10:20 PM 12.8°F-10.7°C 9.4°F-12.6°C 86% 8.1 mph NW13.0 kmh NW 10.4 mph16.7 kmh 29.39 in995.3 mb - 0.00 in0.0 mm 0.31 in7.9 mm
10:30 PM 12.2°F-11.0°C 9.4°F-12.6°C 88% 8.1 mph W13.0 kmh W 11.5 mph18.5 kmh 29.41 in995.9 mb - 0.00 in0.0 mm 0.31 in7.9 mm
10:40 PM 11.3°F-11.5°C 7.7°F-13.5°C 85% 4.6 mph WSW7.4 kmh WSW 11.5 mph18.5 kmh 29.41 in995.9 mb - 0.00 in0.0 mm 0.31 in7.9 mm
10:50 PM 10.4°F-12.0°C 6.8°F-14.0°C 85% 2.3 mph WNW3.7 kmh WNW 15.0 mph24.1 kmh 29.42 in996.3 mb - 0.00 in0.0 mm 0.31 in7.9 mm
11:00 PM 9.6°F-12.4°C 5.8°F-14.6°C 84% 5.8 mph NW9.3 kmh NW 8.1 mph13.0 kmh 29.44 in997.0 mb - 0.00 in0.0 mm 0.31 in7.9 mm
11:10 PM 8.9°F-12.8°C 5.1°F-14.9°C 84% 5.8 mph W9.3 kmh W 9.2 mph14.8 kmh 29.44 in997.0 mb - 0.00 in0.0 mm 0.31 in7.9 mm
11:20 PM 8.4°F-13.1°C 4.8°F-15.1°C 85% 5.8 mph WNW9.3 kmh WNW 13.8 mph22.2 kmh 29.45 in997.3 mb - 0.00 in0.0 mm 0.31 in7.9 mm
11:40 PM 7.5°F-13.6°C 3.9°F-15.6°C 85% 3.5 mph WNW5.6 kmh WNW 11.5 mph18.5 kmh 29.46 in997.6 mb - 0.00 in0.0 mm 0.31 in7.9 mm
11:50 PM 7.0°F-13.9°C 3.2°F-16.0°C 84% 10.4 mph NW16.7 kmh NW 19.6 mph31.5 kmh 29.46 in997.6 mb - 0.00 in0.0 mm 0.31 in7.9 mm